Time;durP1;ratioP1;P1;durP2;ratioP2;P2;SDS_P1;SDS_P2;PMS_P1;PMS_P2;Temp;Humidity;BMP_temperature;BMP_pressure;BME280_temperature;BME280_humidity;BME280_pressure;Samples;Min_cycle;Max_cycle;Signal;HPM_P1;HPM_P2
2021/10/24 00:02:25;;;;;;;7.93;5.90;;;4.10;99.90;;;;;;5067989;28;20492;-51
2021/10/24 00:04:51;;;;;;;9.55;6.63;;;4.10;99.90;;;;;;5068266;28;20020;-51
2021/10/24 00:07:16;;;;;;;9.02;6.05;;;4.10;99.90;;;;;;5068510;28;20108;-55
2021/10/24 00:09:42;;;;;;;8.23;6.57;;;4.10;99.90;;;;;;5068326;28;20468;-54
2021/10/24 00:12:08;;;;;;;6.88;5.63;;;4.10;99.90;;;;;;5068320;28;20078;-52
2021/10/24 00:14:33;;;;;;;8.57;6.50;;;4.10;99.90;;;;;;5067861;28;20039;-51
2021/10/24 00:16:59;;;;;;;9.82;6.45;;;4.00;99.90;;;;;;5068732;28;20022;-52
2021/10/24 00:19:24;;;;;;;7.50;6.68;;;4.00;99.90;;;;;;5068313;28;20059;-52
2021/10/24 00:21:50;;;;;;;9.32;6.20;;;4.00;99.90;;;;;;5068356;28;20472;-52
2021/10/24 00:24:15;;;;;;;7.93;5.72;;;4.00;99.90;;;;;;5068324;28;20028;-52
2021/10/24 00:26:41;;;;;;;8.95;5.45;;;4.00;99.90;;;;;;5068391;28;20407;-53
2021/10/24 00:29:07;;;;;;;7.53;5.85;;;3.90;99.90;;;;;;5067962;28;20082;-52
2021/10/24 00:31:32;;;;;;;9.57;6.18;;;4.00;99.90;;;;;;5068171;28;20044;-53
2021/10/24 00:33:58;;;;;;;13.13;5.88;;;3.90;99.90;;;;;;5064045;28;20029;-52
2021/10/24 00:36:24;;;;;;;8.10;6.68;;;3.90;99.90;;;;;;5067359;28;20032;-53
2021/10/24 00:38:49;;;;;;;11.35;6.25;;;3.90;99.90;;;;;;5068477;28;20046;-50
2021/10/24 00:41:16;;;;;;;13.43;6.55;;;3.90;99.90;;;;;;5078297;22;20132;-49
2021/10/24 00:43:41;;;;;;;11.40;6.25;;;3.90;99.90;;;;;;5048905;28;20033;-49
2021/10/24 00:46:07;;;;;;;9.18;6.43;;;3.80;99.90;;;;;;5048439;28;20090;-51
2021/10/24 00:48:33;;;;;;;9.10;5.78;;;3.80;99.90;;;;;;5046665;28;20036;-50
2021/10/24 00:50:58;;;;;;;9.25;6.07;;;3.80;99.90;;;;;;5051855;28;20025;-50
2021/10/24 00:53:25;;;;;;;9.18;5.70;;;3.80;99.90;;;;;;5052069;28;20122;-51
2021/10/24 00:55:50;;;;;;;7.68;5.47;;;3.90;99.90;;;;;;5012868;28;20490;-52
2021/10/24 00:58:17;;;;;;;7.97;5.68;;;3.90;99.90;;;;;;5045113;28;20087;-49
2021/10/24 01:00:43;;;;;;;8.77;5.97;;;3.90;99.90;;;;;;5049291;28;20408;-48
2021/10/24 01:03:09;;;;;;;9.15;6.45;;;3.90;99.90;;;;;;5049092;28;20037;-49
2021/10/24 01:05:36;;;;;;;9.68;5.95;;;4.00;99.90;;;;;;5050968;28;20060;-49
2021/10/24 01:08:02;;;;;;;10.52;6.30;;;4.00;99.90;;;;;;5051639;28;20025;-48
2021/10/24 01:10:28;;;;;;;8.40;5.65;;;4.00;99.90;;;;;;5051195;28;20104;-54
2021/10/24 01:12:54;;;;;;;8.55;5.78;;;4.00;99.90;;;;;;5031976;28;20055;-49
2021/10/24 01:15:22;;;;;;;9.73;5.32;;;4.10;99.90;;;;;;5031826;28;20057;-48
2021/10/24 01:17:49;;;;;;;9.80;5.75;;;4.10;99.90;;;;;;5031131;28;20532;-49
2021/10/24 01:20:20;;;;;;;7.15;5.47;;;4.10;99.90;;;;;;5031132;28;20025;-50
2021/10/24 01:22:46;;;;;;;8.30;5.47;;;4.10;99.90;;;;;;5040087;28;20112;-49
2021/10/24 01:25:12;;;;;;;7.53;5.72;;;4.10;99.90;;;;;;5037870;28;20109;-48
2021/10/24 01:27:38;;;;;;;8.27;5.40;;;4.20;99.90;;;;;;5029416;28;20029;-49
2021/10/24 01:30:05;;;;;;;6.72;5.68;;;4.10;99.90;;;;;;5020244;28;20025;-48
2021/10/24 01:32:31;;;;;;;8.05;5.53;;;4.20;99.90;;;;;;5051478;28;20037;-50
2021/10/24 01:34:58;;;;;;;9.65;5.22;;;4.20;99.90;;;;;;5051254;28;20037;-48
2021/10/24 01:37:30;;;;;;;16.05;6.25;;;4.10;99.90;;;;;;5051111;28;20029;-49
2021/10/24 01:39:56;;;;;;;7.28;5.05;;;4.20;99.90;;;;;;5050331;28;20081;-49
2021/10/24 01:42:22;;;;;;;7.00;5.03;;;4.20;99.90;;;;;;5033497;28;20121;-51
2021/10/24 01:44:49;;;;;;;7.53;4.97;;;4.20;99.90;;;;;;5050843;28;20044;-51
2021/10/24 01:47:15;;;;;;;12.25;5.47;;;4.20;99.90;;;;;;5032835;28;20052;-52
2021/10/24 01:49:41;;;;;;;7.68;4.65;;;4.20;99.90;;;;;;5050044;28;20044;-51
2021/10/24 01:52:06;;;;;;;9.23;5.65;;;4.20;99.90;;;;;;5028279;28;20033;-52
2021/10/24 01:54:32;;;;;;;8.45;4.65;;;4.20;99.90;;;;;;5050732;28;20036;-49
2021/10/24 01:56:57;;;;;;;7.10;5.03;;;4.20;99.90;;;;;;5050250;28;20025;-50
2021/10/24 01:59:24;;;;;;;9.68;4.72;;;4.20;99.90;;;;;;5049145;28;20577;-50
2021/10/24 02:01:52;;;;;;;7.68;5.13;;;4.20;99.90;;;;;;5050095;28;20021;-49
2021/10/24 02:04:18;;;;;;;12.50;5.38;;;4.30;99.90;;;;;;5032741;28;20029;-50
2021/10/24 02:06:43;;;;;;;10.20;5.32;;;4.30;99.90;;;;;;5050077;28;20370;-52
2021/10/24 02:09:09;;;;;;;9.07;4.93;;;4.30;99.90;;;;;;5049765;28;20028;-51
2021/10/24 02:11:35;;;;;;;7.65;4.47;;;4.30;99.90;;;;;;5049851;28;20032;-48
2021/10/24 02:14:00;;;;;;;7.63;4.75;;;4.30;99.90;;;;;;5032417;28;20044;-51
2021/10/24 02:16:26;;;;;;;6.65;4.32;;;4.40;99.90;;;;;;5050582;28;20392;-52
2021/10/24 02:18:51;;;;;;;9.35;5.13;;;4.40;99.90;;;;;;5049951;28;20029;-49
2021/10/24 02:21:17;;;;;;;9.43;4.97;;;4.40;99.90;;;;;;5049827;28;20140;-53
2021/10/24 02:23:43;;;;;;;10.30;4.85;;;4.40;99.90;;;;;;5050094;28;20488;-49
2021/10/24 02:26:08;;;;;;;6.35;4.13;;;4.50;99.90;;;;;;5050286;28;20079;-52
2021/10/24 02:28:34;;;;;;;5.68;4.15;;;4.50;99.90;;;;;;5050025;28;20017;-52
2021/10/24 02:31:00;;;;;;;8.10;4.80;;;4.50;99.90;;;;;;5049513;28;20025;-51
2021/10/24 02:33:26;;;;;;;7.93;4.50;;;4.50;99.90;;;;;;5038381;28;20315;-49
2021/10/24 02:35:51;;;;;;;6.68;4.40;;;4.50;99.90;;;;;;5036969;28;20080;-49
2021/10/24 02:38:17;;;;;;;8.18;4.63;;;4.60;99.90;;;;;;5050216;28;20028;-50
2021/10/24 02:40:43;;;;;;;6.63;4.70;;;4.60;99.90;;;;;;5031257;28;20116;-54
2021/10/24 02:43:09;;;;;;;11.43;4.38;;;4.60;99.90;;;;;;5049738;28;20040;-53
2021/10/24 02:45:36;;;;;;;8.82;4.38;;;4.60;99.90;;;;;;5050175;28;20017;-49
2021/10/24 02:48:05;;;;;;;7.80;3.90;;;4.60;99.90;;;;;;5050095;28;20044;-50
2021/10/24 02:50:31;;;;;;;7.80;4.22;;;4.70;99.90;;;;;;5009956;28;20176;-51
2021/10/24 02:52:56;;;;;;;8.57;3.92;;;4.70;99.90;;;;;;5026213;28;20160;-51
2021/10/24 02:55:22;;;;;;;10.82;4.75;;;4.70;99.90;;;;;;5038778;28;20040;-50
2021/10/24 02:57:48;;;;;;;7.20;4.22;;;4.70;99.90;;;;;;5029827;28;20025;-49
2021/10/24 03:00:14;;;;;;;7.85;5.07;;;4.70;99.90;;;;;;5029881;28;20029;-52
2021/10/24 03:02:39;;;;;;;9.13;4.68;;;4.70;99.90;;;;;;5029719;28;20037;-51
2021/10/24 03:05:07;;;;;;;5.75;3.97;;;4.70;99.90;;;;;;5019173;28;20084;-51
2021/10/24 03:07:33;;;;;;;5.20;3.58;;;4.80;99.90;;;;;;5014102;28;20017;-51
2021/10/24 03:09:59;;;;;;;5.38;3.40;;;4.80;99.90;;;;;;5021158;28;20029;-50
2021/10/24 03:12:24;;;;;;;7.82;3.92;;;4.80;99.90;;;;;;5010907;28;20036;-51
2021/10/24 03:14:50;;;;;;;9.45;4.32;;;4.80;99.90;;;;;;5029246;28;20029;-52
2021/10/24 03:17:15;;;;;;;7.47;3.83;;;4.80;99.90;;;;;;5029389;28;20034;-50
2021/10/24 03:19:41;;;;;;;7.88;4.03;;;4.80;99.90;;;;;;5029163;28;20029;-51
2021/10/24 03:22:07;;;;;;;7.43;4.45;;;4.80;99.90;;;;;;5027130;28;20041;-51
2021/10/24 03:24:33;;;;;;;11.13;4.40;;;4.70;99.90;;;;;;5029030;28;20025;-52
2021/10/24 03:26:58;;;;;;;7.75;4.13;;;4.70;99.90;;;;;;5027983;28;20448;-49
2021/10/24 03:29:24;;;;;;;8.35;3.83;;;4.70;99.90;;;;;;5009462;28;20022;-53
2021/10/24 03:31:50;;;;;;;4.35;3.35;;;4.70;99.90;;;;;;4991817;28;20121;-48
2021/10/24 03:34:15;;;;;;;8.95;3.60;;;4.70;99.90;;;;;;5009349;28;20416;-52
2021/10/24 03:36:41;;;;;;;3.97;3.50;;;4.60;99.90;;;;;;5010913;28;20077;-49
2021/10/24 03:39:07;;;;;;;6.72;3.50;;;4.60;99.90;;;;;;5009449;28;20042;-49
2021/10/24 03:41:32;;;;;;;7.38;3.78;;;4.60;99.90;;;;;;5009785;28;20048;-49
2021/10/24 03:43:58;;;;;;;9.07;4.13;;;4.60;99.90;;;;;;5009372;28;20026;-49
2021/10/24 03:46:24;;;;;;;9.70;3.22;;;4.60;99.90;;;;;;5009305;28;20014;-53
2021/10/24 03:48:49;;;;;;;8.60;3.45;;;4.60;99.90;;;;;;5009456;28;20033;-53
2021/10/24 03:51:15;;;;;;;7.03;2.92;;;4.60;99.90;;;;;;5008863;28;20108;-49
2021/10/24 03:53:40;;;;;;;6.10;3.28;;;4.50;99.90;;;;;;5023195;28;20041;-51
2021/10/24 03:56:06;;;;;;;5.15;3.08;;;4.50;99.90;;;;;;5018892;28;20076;-48
2021/10/24 03:58:31;;;;;;;6.28;2.72;;;4.50;99.90;;;;;;5025869;28;20025;-50
2021/10/24 04:00:57;;;;;;;6.97;3.72;;;4.40;99.90;;;;;;5048101;28;20454;-52
2021/10/24 04:03:22;;;;;;;5.78;3.13;;;4.50;99.90;;;;;;5047828;28;20041;-49
2021/10/24 04:05:49;;;;;;;6.35;3.17;;;4.40;99.90;;;;;;5048625;28;20736;-52
2021/10/24 04:08:16;;;;;;;5.07;3.40;;;4.40;99.90;;;;;;5048239;28;20021;-52
2021/10/24 04:10:42;;;;;;;5.05;2.88;;;4.40;99.90;;;;;;5047716;28;20056;-49
2021/10/24 04:13:08;;;;;;;3.75;2.92;;;4.40;99.90;;;;;;5048433;28;20048;-49
2021/10/24 04:15:34;;;;;;;5.50;3.55;;;4.30;99.90;;;;;;5009185;28;20030;-53
2021/10/24 04:17:59;;;;;;;5.95;3.25;;;4.30;99.90;;;;;;5026775;28;20025;-49
2021/10/24 04:20:25;;;;;;;4.88;2.95;;;4.30;99.90;;;;;;5048102;28;20087;-52
2021/10/24 04:22:51;;;;;;;9.23;3.42;;;4.30;99.90;;;;;;5047795;28;20063;-50
2021/10/24 04:25:17;;;;;;;6.47;3.42;;;4.20;99.90;;;;;;5048230;28;20040;-54
2021/10/24 04:27:43;;;;;;;10.73;3.13;;;4.20;99.90;;;;;;5029745;28;20661;-50
2021/10/24 04:30:10;;;;;;;8.45;3.53;;;4.20;99.90;;;;;;5029507;28;20056;-52
2021/10/24 04:32:38;;;;;;;7.70;3.50;;;4.20;99.90;;;;;;5029595;28;20672;-51
2021/10/24 04:35:05;;;;;;;5.90;3.20;;;4.20;99.90;;;;;;5047918;28;20037;-49
2021/10/24 04:37:31;;;;;;;6.85;3.38;;;4.20;99.90;;;;;;5048010;28;20040;-49
2021/10/24 04:39:56;;;;;;;8.70;2.88;;;4.20;99.90;;;;;;5047356;28;20021;-49
2021/10/24 04:42:23;;;;;;;8.82;3.67;;;4.10;99.90;;;;;;5029983;28;20064;-50
2021/10/24 04:44:48;;;;;;;10.15;3.55;;;4.10;99.90;;;;;;5048256;28;20503;-51
2021/10/24 04:47:14;;;;;;;4.45;3.42;;;4.10;99.90;;;;;;5046816;28;20029;-48
2021/10/24 04:49:40;;;;;;;5.03;3.03;;;4.00;99.90;;;;;;5028272;28;20070;-50
2021/10/24 04:52:05;;;;;;;7.60;3.17;;;4.00;99.90;;;;;;5028002;28;20025;-48
2021/10/24 04:54:31;;;;;;;7.57;3.20;;;4.00;99.90;;;;;;5028355;28;20401;-49
2021/10/24 04:56:56;;;;;;;9.48;2.63;;;4.00;99.90;;;;;;5028597;28;20026;-49
2021/10/24 04:59:23;;;;;;;9.00;4.00;;;4.00;99.90;;;;;;5037941;28;20632;-49
2021/10/24 05:01:49;;;;;;;6.93;3.13;;;3.90;99.90;;;;;;5029009;28;20037;-50
2021/10/24 05:04:16;;;;;;;5.20;2.97;;;3.90;99.90;;;;;;5047513;28;20420;-48
2021/10/24 05:06:42;;;;;;;5.57;2.90;;;3.90;99.90;;;;;;5047314;28;20668;-52
2021/10/24 05:09:07;;;;;;;10.68;3.65;;;3.90;99.90;;;;;;5029367;28;20033;-49
2021/10/24 05:11:33;;;;;;;6.85;3.22;;;3.90;99.90;;;;;;5046735;28;20049;-53
2021/10/24 05:14:03;;;;;;;5.97;3.22;;;3.90;99.90;;;;;;5047433;28;20025;-51
2021/10/24 05:16:29;;;;;;;4.68;3.17;;;3.80;99.90;;;;;;5012860;28;20060;-53
2021/10/24 05:18:55;;;;;;;6.15;3.35;;;3.80;99.90;;;;;;5047722;28;20538;-49
2021/10/24 05:21:20;;;;;;;6.63;3.60;;;3.80;99.90;;;;;;5046642;28;20037;-53
2021/10/24 05:23:46;;;;;;;7.55;3.20;;;3.70;99.90;;;;;;5047202;28;20036;-49
2021/10/24 05:26:11;;;;;;;4.10;2.88;;;3.70;99.90;;;;;;5047482;28;20028;-51
2021/10/24 05:28:37;;;;;;;5.80;3.20;;;3.70;99.90;;;;;;5047638;28;20029;-53
2021/10/24 05:31:03;;;;;;;8.98;3.35;;;3.70;99.90;;;;;;5047161;28;20032;-52
2021/10/24 05:33:28;;;;;;;5.88;3.35;;;3.70;99.90;;;;;;5047387;28;20036;-51
2021/10/24 05:35:54;;;;;;;4.63;3.28;;;3.70;99.90;;;;;;5031217;28;20025;-49
2021/10/24 05:38:21;;;;;;;5.03;3.28;;;3.60;99.90;;;;;;5050784;28;20036;-50
2021/10/24 05:40:48;;;;;;;6.68;3.17;;;3.60;99.90;;;;;;5050403;28;20116;-50
2021/10/24 05:43:14;;;;;;;9.05;3.40;;;3.60;99.90;;;;;;5050813;28;20028;-51
2021/10/24 05:45:44;;;;;;;6.45;3.47;;;3.60;99.90;;;;;;5051594;28;20029;-48
2021/10/24 05:48:13;;;;;;;6.05;3.58;;;3.60;99.90;;;;;;5051099;28;20028;-50
2021/10/24 05:50:39;;;;;;;10.35;3.40;;;3.50;99.90;;;;;;5050004;28;20473;-52
2021/10/24 05:53:05;;;;;;;6.05;3.28;;;3.50;99.90;;;;;;5049318;28;20033;-52
2021/10/24 05:55:31;;;;;;;6.53;3.00;;;3.50;99.90;;;;;;5050839;28;20029;-52
2021/10/24 05:57:56;;;;;;;7.13;3.28;;;3.50;99.90;;;;;;5032811;28;20029;-49
2021/10/24 06:00:22;;;;;;;6.70;3.45;;;3.50;99.90;;;;;;5032444;28;20411;-51
2021/10/24 06:02:48;;;;;;;7.45;3.97;;;3.50;99.90;;;;;;5050992;28;20037;-53
2021/10/24 06:05:14;;;;;;;5.38;3.13;;;3.40;99.90;;;;;;5050484;28;20056;-49
2021/10/24 06:07:39;;;;;;;7.80;3.58;;;3.40;99.90;;;;;;5050657;28;20033;-50
2021/10/24 06:10:22;;;;;;;5.30;3.25;;;3.40;99.90;;;;;;5050415;28;20033;-52
2021/10/24 06:12:56;;;;;;;6.65;3.58;;;3.40;99.90;;;;;;5049812;28;20029;-49
2021/10/24 06:15:22;;;;;;;5.18;3.60;;;3.40;99.90;;;;;;5049892;28;20079;-50
2021/10/24 06:17:49;;;;;;;7.50;3.65;;;3.40;99.90;;;;;;5050132;28;20029;-51
2021/10/24 06:20:16;;;;;;;3.97;3.33;;;3.40;99.90;;;;;;5050075;28;20639;-48
2021/10/24 06:22:42;;;;;;;6.40;3.40;;;3.40;99.90;;;;;;5050000;28;20033;-50
2021/10/24 06:25:10;;;;;;;4.03;3.40;;;3.40;99.90;;;;;;5049277;28;20039;-49
2021/10/24 06:27:37;;;;;;;7.40;3.60;;;3.40;99.90;;;;;;5049789;28;20017;-49
2021/10/24 06:30:05;;;;;;;7.97;4.13;;;3.40;99.90;;;;;;5049604;28;20025;-49
2021/10/24 06:32:31;;;;;;;5.65;3.63;;;3.30;99.90;;;;;;5031375;28;20033;-48
2021/10/24 06:34:56;;;;;;;9.98;4.20;;;3.30;99.90;;;;;;5031674;28;20373;-49
2021/10/24 06:37:22;;;;;;;5.43;3.72;;;3.30;99.90;;;;;;5049671;28;20481;-50
2021/10/24 06:39:48;;;;;;;8.00;3.95;;;3.30;99.90;;;;;;5049184;28;20033;-50
2021/10/24 06:42:13;;;;;;;7.75;4.60;;;3.30;99.90;;;;;;5066379;23;20235;-52
2021/10/24 06:44:39;;;;;;;7.90;3.78;;;3.30;99.90;;;;;;5069290;28;20054;-52
2021/10/24 06:47:05;;;;;;;8.65;4.22;;;3.30;99.90;;;;;;5068171;28;20044;-48
2021/10/24 06:49:31;;;;;;;8.52;4.43;;;3.30;99.90;;;;;;5069573;28;20492;-54
2021/10/24 06:51:58;;;;;;;7.25;3.28;;;3.30;99.90;;;;;;5075192;28;20620;-52
2021/10/24 06:54:24;;;;;;;6.97;4.07;;;3.30;99.90;;;;;;5069608;28;20032;-52
2021/10/24 06:56:50;;;;;;;5.47;4.25;;;3.30;99.90;;;;;;5069588;28;20034;-55
2021/10/24 06:59:15;;;;;;;8.63;4.32;;;3.30;99.90;;;;;;5053587;28;20594;-50
2021/10/24 07:01:41;;;;;;;7.93;4.63;;;3.30;99.90;;;;;;5048160;28;20032;-52
2021/10/24 07:04:10;;;;;;;8.35;4.53;;;3.40;99.90;;;;;;5049423;28;20124;-54
2021/10/24 07:06:36;;;;;;;7.88;4.30;;;3.40;99.90;;;;;;5048517;28;20120;-53
2021/10/24 07:09:02;;;;;;;6.70;3.83;;;3.40;99.90;;;;;;5048045;28;20108;-52
2021/10/24 07:11:28;;;;;;;9.38;5.25;;;3.50;99.90;;;;;;5065508;28;20043;-53
2021/10/24 07:13:53;;;;;;;5.32;4.35;;;3.50;99.90;;;;;;5054916;28;20021;-52
2021/10/24 07:16:19;;;;;;;10.45;5.15;;;3.50;99.90;;;;;;5049302;28;20028;-55
2021/10/24 07:18:44;;;;;;;9.30;4.45;;;3.60;99.90;;;;;;5049548;28;20051;-51
2021/10/24 07:21:10;;;;;;;10.98;4.72;;;3.60;99.90;;;;;;5049164;28;20021;-52
2021/10/24 07:23:35;;;;;;;5.60;4.75;;;3.60;99.90;;;;;;5047770;28;20059;-52
2021/10/24 07:26:01;;;;;;;9.38;4.20;;;3.60;99.90;;;;;;5055889;28;20043;-52
2021/10/24 07:28:26;;;;;;;9.25;5.72;;;3.70;99.90;;;;;;5066508;28;20054;-53
2021/10/24 07:30:53;;;;;;;8.40;4.40;;;3.70;99.90;;;;;;5068179;28;20021;-53
2021/10/24 07:33:18;;;;;;;7.35;5.00;;;3.70;99.90;;;;;;5067382;28;20024;-53
2021/10/24 07:35:44;;;;;;;15.07;5.78;;;3.70;99.90;;;;;;5068762;28;20044;-51
2021/10/24 07:38:15;;;;;;;8.15;5.38;;;3.80;99.90;;;;;;5065742;28;20028;-52
2021/10/24 07:40:50;;;;;;;11.32;5.95;;;3.90;99.90;;;;;;5064541;28;20029;-51
2021/10/24 07:43:21;;;;;;;13.82;5.82;;;3.90;99.90;;;;;;5048759;28;20508;-51
2021/10/24 07:45:48;;;;;;;7.95;5.10;;;4.00;99.90;;;;;;5056857;28;20395;-53
2021/10/24 07:48:14;;;;;;;6.78;5.18;;;4.00;99.90;;;;;;5055352;28;20064;-52
2021/10/24 07:50:40;;;;;;;10.40;5.65;;;4.00;99.90;;;;;;5052211;28;20017;-53
2021/10/24 07:53:06;;;;;;;10.48;5.53;;;4.10;99.90;;;;;;5066694;28;20028;-52
2021/10/24 07:55:31;;;;;;;8.02;5.70;;;4.10;99.90;;;;;;5058339;28;20111;-51
2021/10/24 07:57:57;;;;;;;9.43;5.05;;;4.20;99.90;;;;;;5047525;28;20615;-51
2021/10/24 08:00:23;;;;;;;7.80;5.28;;;4.30;99.90;;;;;;5047188;28;20057;-53
2021/10/24 08:02:51;;;;;;;11.43;5.05;;;4.30;99.90;;;;;;5047750;28;20570;-50
2021/10/24 08:05:17;;;;;;;8.93;6.28;;;4.40;99.90;;;;;;5048883;28;20489;-54
2021/10/24 08:07:43;;;;;;;13.07;6.55;;;4.50;99.90;;;;;;5048032;28;20025;-53
2021/10/24 08:10:10;;;;;;;10.30;5.95;;;4.60;99.90;;;;;;5048314;28;20017;-51
2021/10/24 08:12:38;;;;;;;10.48;5.38;;;4.70;99.90;;;;;;5048534;28;20504;-51
2021/10/24 08:15:05;;;;;;;9.02;5.90;;;4.80;99.90;;;;;;5048471;28;20058;-53
2021/10/24 08:17:31;;;;;;;7.50;5.97;;;5.00;99.90;;;;;;5048182;28;20025;-53
2021/10/24 08:19:56;;;;;;;12.68;5.95;;;5.20;99.90;;;;;;5047917;28;20029;-51
2021/10/24 08:22:23;;;;;;;10.55;6.63;;;5.30;99.90;;;;;;5048291;28;20083;-53
2021/10/24 08:24:48;;;;;;;7.78;5.38;;;5.50;99.90;;;;;;5048497;28;20067;-52
2021/10/24 08:27:15;;;;;;;10.70;6.10;;;5.70;99.90;;;;;;5048490;28;20025;-50
2021/10/24 08:29:40;;;;;;;13.63;6.15;;;5.80;99.90;;;;;;5048042;28;20021;-51
2021/10/24 08:32:10;;;;;;;9.27;5.57;;;6.00;99.90;;;;;;5048314;28;20017;-52
2021/10/24 08:34:37;;;;;;;10.52;6.65;;;6.00;99.90;;;;;;5049751;28;20036;-50
2021/10/24 08:37:04;;;;;;;9.93;4.70;;;6.20;99.90;;;;;;5047850;28;20105;-54
2021/10/24 08:39:29;;;;;;;9.57;5.63;;;6.30;99.90;;;;;;5053178;28;20025;-51
2021/10/24 08:41:56;;;;;;;9.70;4.88;;;6.40;99.90;;;;;;5056337;28;20036;-51
2021/10/24 08:44:24;;;;;;;10.45;5.13;;;6.50;99.90;;;;;;5047608;28;20025;-52
2021/10/24 08:46:51;;;;;;;6.45;4.00;;;6.60;99.90;;;;;;5047822;28;20070;-51
2021/10/24 08:49:17;;;;;;;9.90;4.55;;;6.70;99.90;;;;;;5051814;28;20060;-51
2021/10/24 08:51:42;;;;;;;7.25;4.53;;;6.80;99.90;;;;;;5047004;28;20730;-51
2021/10/24 08:54:10;;;;;;;9.40;4.55;;;6.90;99.90;;;;;;5058029;28;20021;-52
2021/10/24 08:56:37;;;;;;;7.88;4.28;;;7.00;99.90;;;;;;5054739;28;20049;-50
2021/10/24 08:59:03;;;;;;;7.65;4.50;;;7.10;99.90;;;;;;5046790;28;20029;-51
2021/10/24 09:01:29;;;;;;;7.20;4.50;;;7.10;99.90;;;;;;5049222;28;20029;-51
2021/10/24 09:04:13;;;;;;;8.90;4.20;;;7.10;99.90;;;;;;5047908;28;20500;-51
2021/10/24 09:06:55;;;;;;;9.50;4.80;;;7.20;99.90;;;;;;5062196;28;20431;-53
2021/10/24 09:09:32;;;;;;;5.90;3.80;;;7.20;99.90;;;;;;5066096;28;20025;-53
2021/10/24 09:12:04;;;;;;;8.90;3.83;;;7.30;99.90;;;;;;5070580;28;20033;-51
2021/10/24 09:14:52;;;;;;;10.30;4.07;;;7.30;99.90;;;;;;5060153;28;20117;-52
2021/10/24 09:17:24;;;;;;;8.93;3.72;;;7.40;99.90;;;;;;5051643;28;20087;-52
2021/10/24 09:19:52;;;;;;;8.07;4.22;;;7.40;99.90;;;;;;5051142;28;20116;-54
2021/10/24 09:22:18;;;;;;;4.28;3.55;;;7.50;99.90;;;;;;5051262;28;20029;-52
2021/10/24 09:25:02;;;;;;;6.43;3.45;;;7.50;99.90;;;;;;5050779;28;20074;-55
2021/10/24 09:27:48;;;;;;;6.97;4.63;;;7.60;99.90;;;;;;5051197;28;20029;-51
2021/10/24 09:30:26;;;;;;;7.28;5.05;;;7.60;99.90;;;;;;5050812;28;20493;-52
2021/10/24 09:33:09;;;;;;;7.05;3.80;;;7.70;99.90;;;;;;5050912;28;20406;-53
2021/10/24 09:35:37;;;;;;;11.65;3.55;;;7.70;99.90;;;;;;5036269;28;20029;-54
2021/10/24 09:38:25;;;;;;;7.70;3.78;;;7.80;99.90;;;;;;5051102;28;20090;-52
2021/10/24 09:40:56;;;;;;;8.40;3.83;;;7.80;99.90;;;;;;5050799;28;20028;-54
2021/10/24 09:43:27;;;;;;;8.70;4.05;;;7.90;99.90;;;;;;5049389;28;20064;-55
2021/10/24 09:45:59;;;;;;;10.40;3.65;;;7.90;99.90;;;;;;5050263;28;20503;-52
2021/10/24 09:48:33;;;;;;;7.38;3.53;;;8.00;99.90;;;;;;5049844;28;20028;-52
2021/10/24 09:51:03;;;;;;;6.72;3.05;;;8.00;99.90;;;;;;5050271;28;20055;-52
2021/10/24 09:53:35;;;;;;;5.93;3.35;;;8.10;99.90;;;;;;5051269;28;20037;-52
2021/10/24 09:56:01;;;;;;;7.53;4.25;;;8.10;99.90;;;;;;5050280;28;20087;-53
2021/10/24 09:58:28;;;;;;;6.35;3.33;;;8.10;99.90;;;;;;5050614;28;20036;-52
2021/10/24 10:00:54;;;;;;;8.32;3.72;;;8.20;99.90;;;;;;5050588;28;20104;-53
2021/10/24 10:03:24;;;;;;;4.78;3.40;;;8.20;99.90;;;;;;5050400;28;20025;-53
2021/10/24 10:05:51;;;;;;;6.95;3.45;;;8.20;99.90;;;;;;5046612;28;20083;-54
2021/10/24 10:08:18;;;;;;;8.18;3.83;;;8.30;99.90;;;;;;5059871;28;20559;-53
2021/10/24 10:11:10;;;;;;;6.88;3.55;;;8.30;99.90;;;;;;5052948;28;20078;-52
2021/10/24 10:13:40;;;;;;;10.38;3.63;;;8.40;99.90;;;;;;5004966;28;20063;-53
2021/10/24 10:16:11;;;;;;;5.20;3.65;;;8.40;99.90;;;;;;5068687;28;20025;-52
2021/10/24 10:18:55;;;;;;;9.30;4.55;;;8.40;99.90;;;;;;5069768;28;20451;-53
2021/10/24 10:21:29;;;;;;;5.10;3.20;;;8.50;99.90;;;;;;5062530;28;20035;-52
2021/10/24 10:23:55;;;;;;;6.95;3.20;;;8.50;99.90;;;;;;5051111;28;20031;-52
2021/10/24 10:26:39;;;;;;;5.05;2.78;;;8.50;99.90;;;;;;5050395;28;20025;-52
2021/10/24 10:29:07;;;;;;;6.90;3.90;;;8.60;99.90;;;;;;5049909;28;20028;-54
2021/10/24 10:31:35;;;;;;;11.40;4.03;;;8.70;99.90;;;;;;5050357;28;20040;-54
2021/10/24 10:34:05;;;;;;;5.80;3.30;;;8.70;99.90;;;;;;5051413;28;20021;-53
2021/10/24 10:37:00;;;;;;;5.60;3.25;;;8.70;99.90;;;;;;5048537;28;20071;-53
2021/10/24 10:39:34;;;;;;;5.63;3.50;;;8.80;99.90;;;;;;5037634;28;20158;-54
2021/10/24 10:42:28;;;;;;;6.85;3.28;;;8.80;99.90;;;;;;5052807;28;20059;-52
2021/10/24 10:45:15;;;;;;;4.25;3.55;;;8.80;99.90;;;;;;5049544;28;20103;-54
2021/10/24 10:47:54;;;;;;;6.40;3.70;;;8.90;99.90;;;;;;5049958;28;20493;-53
2021/10/24 10:50:38;;;;;;;6.22;4.15;;;9.00;99.90;;;;;;5063527;28;20108;-52
2021/10/24 10:53:09;;;;;;;5.50;3.42;;;9.00;99.90;;;;;;5069914;28;20459;-52
2021/10/24 10:56:01;;;;;;;7.07;3.90;;;9.10;99.90;;;;;;5068846;28;20035;-54
2021/10/24 10:58:36;;;;;;;6.03;3.30;;;9.20;99.90;;;;;;5069610;28;20025;-53
2021/10/24 11:01:03;;;;;;;7.68;3.53;;;9.20;99.90;;;;;;5051425;28;20056;-52
2021/10/24 11:03:40;;;;;;;7.88;3.88;;;9.20;99.90;;;;;;5049223;28;20204;-53
2021/10/24 11:06:31;;;;;;;9.07;3.53;;;9.20;99.90;;;;;;5066390;28;20027;-52
2021/10/24 11:09:03;;;;;;;4.38;3.20;;;9.30;99.90;;;;;;5069469;28;20025;-52
2021/10/24 11:11:44;;;;;;;6.63;3.05;;;9.40;99.90;;;;;;5067704;28;20387;-53
2021/10/24 11:14:15;;;;;;;4.28;3.10;;;9.40;99.90;;;;;;5068842;28;20456;-52
2021/10/24 11:16:48;;;;;;;6.05;2.70;;;9.40;99.90;;;;;;5069059;28;20097;-54
2021/10/24 11:19:29;;;;;;;5.80;3.00;;;9.40;99.90;;;;;;5068683;28;20024;-52
2021/10/24 11:22:01;;;;;;;5.38;3.30;;;9.50;99.90;;;;;;5059615;28;20771;-53
2021/10/24 11:24:38;;;;;;;8.45;3.80;;;9.50;99.90;;;;;;5068915;28;20047;-52
2021/10/24 11:27:05;;;;;;;5.18;3.30;;;9.60;99.90;;;;;;5050625;28;20512;-53
2021/10/24 11:29:35;;;;;;;6.55;3.45;;;9.60;99.90;;;;;;5048516;28;20104;-53
2021/10/24 11:32:23;;;;;;;6.95;5.13;;;9.60;99.90;;;;;;5048024;28;20035;-55
2021/10/24 11:34:49;;;;;;;6.53;3.90;;;9.70;99.90;;;;;;5047552;28;20028;-52
2021/10/24 11:37:16;;;;;;;9.05;3.90;;;9.70;99.90;;;;;;5049444;28;20064;-54
2021/10/24 11:39:47;;;;;;;7.30;3.90;;;9.80;99.90;;;;;;5054805;28;20458;-55
2021/10/24 11:42:14;;;;;;;7.57;3.33;;;9.80;99.90;;;;;;5049581;28;20028;-52
2021/10/24 11:44:41;;;;;;;5.47;3.38;;;9.80;99.90;;;;;;5048348;28;20028;-52
2021/10/24 11:47:11;;;;;;;4.40;2.42;;;9.90;99.90;;;;;;5048912;28;20075;-52
2021/10/24 11:49:50;;;;;;;5.38;2.72;;;9.90;99.90;;;;;;5048121;28;20040;-54
2021/10/24 11:52:31;;;;;;;4.60;2.25;;;9.90;99.90;;;;;;5048952;28;20028;-52
2021/10/24 11:55:04;;;;;;;5.60;3.10;;;9.90;99.90;;;;;;5048859;28;20040;-54
2021/10/24 12:00:18;;;;;;;4.15;2.38;;;10.00;99.90;;;;;;5050978;28;20112;-51
2021/10/24 12:03:03;;;;;;;5.18;2.38;;;10.00;99.90;;;;;;5052805;28;20064;-56
2021/10/24 12:05:30;;;;;;;5.18;2.33;;;10.00;99.90;;;;;;5056271;28;20531;-53
2021/10/24 12:07:57;;;;;;;8.95;3.60;;;10.00;99.90;;;;;;5068450;28;20047;-53
2021/10/24 12:10:35;;;;;;;6.57;2.90;;;10.10;99.90;;;;;;5068390;28;20099;-55
2021/10/24 12:13:03;;;;;;;5.15;2.70;;;10.10;99.90;;;;;;5068340;28;20488;-52
2021/10/24 12:15:40;;;;;;;9.38;2.45;;;10.10;99.90;;;;;;5068198;28;20079;-51
2021/10/24 12:18:16;;;;;;;4.07;2.13;;;10.10;99.90;;;;;;5068381;28;20027;-55
2021/10/24 12:20:56;;;;;;;5.00;2.70;;;10.20;99.90;;;;;;5067800;28;20130;-51
2021/10/24 12:23:22;;;;;;;2.90;2.45;;;10.20;99.90;;;;;;5068373;28;20058;-53
2021/10/24 12:25:50;;;;;;;8.18;2.45;;;10.20;99.90;;;;;;5068040;28;20083;-53
2021/10/24 12:28:31;;;;;;;6.45;2.50;;;10.20;99.90;;;;;;5068289;28;20109;-53
2021/10/24 12:31:11;;;;;;;4.95;2.42;;;10.20;99.90;;;;;;5068266;28;20388;-52
2021/10/24 12:33:40;;;;;;;3.53;2.33;;;10.20;99.90;;;;;;5067976;28;20021;-53
2021/10/24 12:36:08;;;;;;;3.88;2.65;;;10.20;99.90;;;;;;5067581;28;20036;-54
2021/10/24 12:38:54;;;;;;;3.83;1.75;;;10.30;99.90;;;;;;5066928;28;20174;-53
2021/10/24 12:41:31;;;;;;;2.50;2.30;;;10.30;99.90;;;;;;5044269;28;20013;-52
2021/10/24 12:43:57;;;;;;;5.20;3.15;;;10.30;99.90;;;;;;5079009;22;20127;-54
2021/10/24 12:46:31;;;;;;;5.32;2.30;;;10.30;99.90;;;;;;5072012;28;20646;-51
2021/10/24 12:48:57;;;;;;;5.40;2.45;;;10.30;99.90;;;;;;5071729;28;20027;-51
2021/10/24 12:51:28;;;;;;;4.70;2.17;;;10.40;99.90;;;;;;5077676;28;20028;-53
2021/10/24 12:54:00;;;;;;;5.57;2.60;;;10.40;99.90;;;;;;5090826;28;20039;-53
2021/10/24 12:56:26;;;;;;;5.03;2.25;;;10.40;99.90;;;;;;5090359;28;20051;-54
2021/10/24 12:58:52;;;;;;;4.63;2.20;;;10.40;99.90;;;;;;5092264;28;20114;-52
2021/10/24 13:01:19;;;;;;;3.90;2.10;;;10.40;99.90;;;;;;5084659;28;20028;-55
2021/10/24 13:03:44;;;;;;;2.53;1.83;;;10.50;99.90;;;;;;5072357;28;20085;-54
2021/10/24 13:06:10;;;;;;;2.03;1.42;;;10.50;99.90;;;;;;5071731;28;20395;-52